world map with AHB marked

AHB - Airport

This information may not be accurate or current and is not valid for navigation or flight planning. No warranty of fitness for any purpose is made or implied.

flag of Saudi Arabia

Donate via PayPal

Additional information is available on the NEW Great Circle Mapper

Location
City:  Abha, Saudi Arabia
Near (Alt.):Khamis Mushayat
Name:Abha Airport
ICAO / IATA:OEAB / AHB

Details
Type:Airport (Aerodrome, Airfield)
Use:Public/Civil
Latitude:18°14'25"N (18.240278)
Longitude:42°39'23"E (42.656389)
Elevation:6858 ft (2090 m)
Runways:1
Longest:10991 × 148 ft (3350 × 45 m)

Time
Timezone:UTC+3 (DST+5)
Local Time:

Weather
METAR:OEAB  200800Z 12004KT 9999 FEW020 21/08 Q1027 NOSIG
TAF:OEAB  (expired)

Related Locations
Nearby:
Farthest:PUK: 12427 mi / 20000 km
Pukarua, PF

Find:

   beyond  
but within

Other Information
Maps:
Sources:

  


 


Great Circle Mapper   Great Circle Mapper
Great Circle Mapper FAQ   Great Circle Mapper FAQ
  Karl's Home Page
KLSē   KLSē Home
   GC on Facebook
Airlines of the World   Airlines of the World
Donate via PayPal


Copyright © 2004-2018, Karl L. Swartz. All rights reserved.
All trademarks mentioned herein belong to their respective owners.

Please see credits for attribution and copyright information.

Karl Swartz <karl@kls2.com>
  Powered by FreeBSD
Valid HTML 4.01!
Labeled with ICRA
hCard Microformat
Geo Microformat